Time;durP1;ratioP1;P1;durP2;ratioP2;P2;SDS_P1;SDS_P2;PMS_P1;PMS_P2;Temp;Humidity;BMP_temperature;BMP_pressure;BME280_temperature;BME280_humidity;BME280_pressure;Samples;Min_cycle;Max_cycle;Signal;HPM_P1;HPM_P2
2023/10/29 00:02:16;;;;;;;7.80;2.90;;;;;;;13.64;82.82;97726.72;6335963;22;20420;-96
2023/10/29 00:04:42;;;;;;;3.00;1.20;;;;;;;13.67;82.53;97725.25;6306180;22;20602;-96
2023/10/29 00:07:07;;;;;;;4.43;1.40;;;;;;;13.60;82.68;97717.56;6333749;22;20098;-96
2023/10/29 00:09:33;;;;;;;3.33;1.30;;;;;;;13.70;82.32;97727.31;6333822;22;20017;-96
2023/10/29 00:11:58;;;;;;;5.07;1.38;;;;;;;13.78;82.64;97737.38;6334025;22;20052;-96
2023/10/29 00:14:24;;;;;;;4.22;1.58;;;;;;;13.72;82.42;97725.03;6333359;22;20151;-96
2023/10/29 00:16:50;;;;;;;4.40;1.15;;;;;;;13.75;82.43;97719.69;6305863;22;20055;-96
2023/10/29 00:19:15;;;;;;;4.25;1.60;;;;;;;13.89;82.39;97718.59;6307214;22;20102;-96
2023/10/29 00:21:40;;;;;;;3.20;1.20;;;;;;;13.75;82.21;97705.22;6336340;22;20006;-96
2023/10/29 00:24:06;;;;;;;3.67;1.30;;;;;;;13.72;82.62;97697.66;6304844;22;20040;-95
2023/10/29 00:26:32;;;;;;;4.30;1.00;;;;;;;13.77;82.11;97692.75;6334106;22;20015;-96
2023/10/29 00:28:57;;;;;;;4.43;1.25;;;;;;;13.71;82.20;97704.28;6334707;22;20018;-96
2023/10/29 00:31:23;;;;;;;4.53;2.47;;;;;;;13.89;81.63;97713.13;6307673;22;20006;-96
2023/10/29 00:33:49;;;;;;;5.43;1.85;;;;;;;13.85;81.91;97707.50;6334854;22;20476;-96
2023/10/29 00:36:15;;;;;;;6.85;1.65;;;;;;;13.85;81.53;97702.03;6333219;22;20007;-96
2023/10/29 00:38:40;;;;;;;2.80;1.35;;;;;;;14.02;81.14;97708.47;6332723;22;20011;-96
2023/10/29 00:41:05;;;;;;;2.75;1.08;;;;;;;13.97;80.98;97704.00;6304793;22;20011;-96
2023/10/29 00:43:40;;;;;;;4.75;0.90;;;;;;;14.08;81.13;97703.56;6332013;22;20002;-96
2023/10/29 00:46:06;;;;;;;3.38;1.33;;;;;;;14.02;81.05;97705.72;6331790;22;20006;-95
2023/10/29 00:48:32;;;;;;;2.70;1.10;;;;;;;14.06;80.70;97683.94;6331453;22;20153;-96
2023/10/29 00:50:58;;;;;;;2.70;0.95;;;;;;;13.91;80.88;97682.66;6332409;22;20007;-96
2023/10/29 00:53:24;;;;;;;4.90;1.10;;;;;;;14.12;80.70;97675.16;6303782;22;20089;-96
2023/10/29 00:55:50;;;;;;;6.68;1.38;;;;;;;13.99;80.50;97688.03;6338359;22;20448;-96
2023/10/29 00:58:16;;;;;;;4.65;1.30;;;;;;;14.03;80.71;97688.16;6344625;22;20006;-96
2023/10/29 01:00:42;;;;;;;3.03;1.20;;;;;;;14.06;80.29;97664.75;6315578;22;20055;-96
2023/10/29 01:03:07;;;;;;;1.58;0.80;;;;;;;13.98;80.78;97660.97;6308466;22;20097;-95
2023/10/29 01:05:33;;;;;;;3.72;1.38;;;;;;;14.08;80.53;97666.03;6334848;22;20014;-95
2023/10/29 01:07:59;;;;;;;4.70;1.30;;;;;;;14.03;80.85;97679.16;6332330;22;20021;-95
2023/10/29 01:10:24;;;;;;;3.65;1.20;;;;;;;14.03;80.60;97699.13;6304424;22;20029;-95
2023/10/29 01:12:50;;;;;;;3.75;1.30;;;;;;;14.09;80.61;97686.00;6331813;22;20007;-95
2023/10/29 01:15:15;;;;;;;3.40;1.00;;;;;;;13.98;81.38;97693.84;6331690;22;20011;-96
2023/10/29 01:17:41;;;;;;;3.33;1.20;;;;;;;14.13;80.39;97673.22;6331870;22;20018;-96
2023/10/29 01:20:07;;;;;;;4.53;1.33;;;;;;;14.16;80.48;97682.69;6332002;22;20021;-95
2023/10/29 01:22:33;;;;;;;4.10;0.95;;;;;;;14.22;79.97;97678.59;6331995;22;20038;-95
2023/10/29 01:24:58;;;;;;;3.67;1.30;;;;;;;14.11;80.25;97675.50;6331977;22;20326;-96
2023/10/29 01:27:24;;;;;;;6.18;1.40;;;;;;;14.05;79.88;97650.28;6331387;22;20014;-95
2023/10/29 01:29:49;;;;;;;3.80;1.33;;;;;;;14.08;80.17;97640.56;6304502;22;20348;-96
2023/10/29 01:32:14;;;;;;;5.05;1.30;;;;;;;14.14;79.94;97652.13;6331562;22;20064;-95
2023/10/29 01:34:40;;;;;;;5.83;1.70;;;;;;;14.15;79.32;97648.22;6331460;22;20018;-95
2023/10/29 01:37:05;;;;;;;6.27;0.80;;;;;;;14.20;79.33;97659.75;6332455;22;20223;-95
2023/10/29 01:39:30;;;;;;;4.22;1.67;;;;;;;14.21;79.36;97658.63;6331650;22;20234;-94
2023/10/29 01:41:57;;;;;;;3.90;1.20;;;;;;;14.10;79.02;97657.47;6331847;22;20006;-93
2023/10/29 01:44:23;;;;;;;3.95;1.20;;;;;;;14.05;79.60;97639.31;6331380;22;19999;-93
2023/10/29 01:46:49;;;;;;;3.55;1.40;;;;;;;14.03;79.45;97647.06;6332142;22;19999;-94
2023/10/29 01:49:14;;;;;;;3.08;1.40;;;;;;;14.10;79.54;97636.34;6331550;22;20101;-94
2023/10/29 01:51:39;;;;;;;5.13;1.05;;;;;;;14.25;79.29;97636.81;6330999;22;20407;-94
2023/10/29 01:54:05;;;;;;;3.80;1.20;;;;;;;14.05;79.01;97631.09;6330976;22;20014;-94
2023/10/29 01:56:30;;;;;;;3.88;1.02;;;;;;;14.05;79.64;97641.25;6331561;22;20600;-94
2023/10/29 01:58:55;;;;;;;9.15;1.25;;;;;;;14.23;79.17;97653.63;6331498;22;20002;-94
2023/10/29 02:01:20;;;;;;;3.90;1.53;;;;;;;14.23;78.93;97674.72;6331535;22;20029;-93
2023/10/29 02:03:46;;;;;;;4.33;1.10;;;;;;;14.26;79.12;97676.00;6331041;22;20635;-94
2023/10/29 02:06:18;;;;;;;2.70;0.80;;;;;;;14.05;80.60;97674.13;6331386;22;20546;-95
2023/10/29 02:08:43;;;;;;;3.03;1.17;;;;;;;14.11;80.64;97642.63;6331977;22;20556;-94
2023/10/29 02:11:09;;;;;;;5.20;1.38;;;;;;;14.19;80.66;97638.19;6334668;22;20037;-93
2023/10/29 02:13:34;;;;;;;2.47;1.02;;;;;;;14.17;80.69;97619.34;6335277;22;20039;-94
2023/10/29 02:16:00;;;;;;;2.83;1.20;;;;;;;14.04;81.18;97614.97;6335085;22;20017;-94
2023/10/29 02:18:25;;;;;;;1.73;0.80;;;;;;;14.02;80.96;97626.28;6334947;22;20170;-94
2023/10/29 02:20:50;;;;;;;10.23;2.88;;;;;;;14.18;81.35;97623.69;6334571;22;20418;-94
2023/10/29 02:23:15;;;;;;;4.13;1.10;;;;;;;14.09;81.22;97618.31;6334652;22;20058;-93
2023/10/29 02:25:41;;;;;;;2.30;0.77;;;;;;;14.15;81.46;97612.59;6334896;22;20653;-94
2023/10/29 02:28:07;;;;;;;4.28;1.00;;;;;;;14.18;81.17;97620.13;6334650;22;20084;-94
2023/10/29 02:30:32;;;;;;;14.27;2.92;;;;;;;14.15;81.36;97605.19;6335000;22;20017;-94
2023/10/29 02:32:57;;;;;;;3.88;1.20;;;;;;;14.09;81.69;97612.03;6334382;22;20093;-93
2023/10/29 02:35:23;;;;;;;5.57;0.98;;;;;;;14.03;81.75;97605.97;6307280;22;20003;-94
2023/10/29 02:37:48;;;;;;;4.00;1.40;;;;;;;14.00;81.78;97587.47;6334792;22;20294;-93
2023/10/29 02:40:13;;;;;;;4.07;1.25;;;;;;;13.88;82.27;97589.06;6335031;22;20010;-93
2023/10/29 02:42:39;;;;;;;4.40;1.38;;;;;;;13.89;82.56;97596.13;6334471;22;20003;-93
2023/10/29 02:45:04;;;;;;;3.85;1.10;;;;;;;13.98;82.26;97571.38;6334670;22;20051;-94
2023/10/29 02:47:30;;;;;;;6.55;2.33;;;;;;;13.99;82.17;97585.88;6334744;22;20029;-93
2023/10/29 02:49:55;;;;;;;2.78;0.77;;;;;;;13.95;82.29;97565.78;6335793;22;20006;-94
2023/10/29 02:52:20;;;;;;;4.13;1.67;;;;;;;14.09;82.23;97573.69;6335446;22;20002;-93
2023/10/29 02:54:46;;;;;;;6.33;0.80;;;;;;;14.00;82.47;97585.53;6335485;22;20254;-93
2023/10/29 02:57:13;;;;;;;8.65;2.00;;;;;;;14.02;82.15;97563.28;6335317;22;20273;-94
2023/10/29 02:59:38;;;;;;;4.13;1.00;;;;;;;13.99;82.12;97553.78;6335172;22;20007;-94
2023/10/29 03:02:04;;;;;;;3.20;0.70;;;;;;;13.99;82.42;97553.78;6334686;22;20025;-92
2023/10/29 03:04:29;;;;;;;2.13;0.70;;;;;;;14.05;81.91;97584.53;6334806;22;20023;-93
2023/10/29 03:06:54;;;;;;;9.70;1.42;;;;;;;14.14;81.39;97561.69;6335370;22;20306;-93
2023/10/29 03:09:20;;;;;;;2.92;1.15;;;;;;;14.03;81.84;97551.19;6335202;22;20422;-94
2023/10/29 03:11:45;;;;;;;6.75;0.90;;;;;;;13.75;81.98;97560.84;6335210;22;20003;-93
2023/10/29 03:14:10;;;;;;;2.88;1.00;;;;;;;14.13;81.63;97569.13;6334878;22;20030;-94
2023/10/29 03:16:36;;;;;;;1.60;0.90;;;;;;;13.94;81.76;97575.13;6335447;22;20064;-94
2023/10/29 03:19:01;;;;;;;4.03;0.70;;;;;;;14.05;81.35;97573.56;6307721;22;20449;-94
2023/10/29 03:21:26;;;;;;;2.50;1.00;;;;;;;14.10;80.94;97554.16;6333215;22;20145;-93
2023/10/29 03:23:51;;;;;;;2.60;0.75;;;;;;;14.03;81.43;97562.16;6333574;22;20240;-94
2023/10/29 03:26:17;;;;;;;4.50;1.05;;;;;;;14.12;81.21;97562.81;6333372;22;20444;-93
2023/10/29 03:28:42;;;;;;;3.67;0.90;;;;;;;14.21;80.81;97553.69;6318934;22;20018;-94
2023/10/29 03:31:12;;;;;;;2.20;0.80;;;;;;;14.27;80.17;97537.81;6352702;22;20216;-94
2023/10/29 03:33:37;;;;;;;4.80;0.80;;;;;;;14.13;80.64;97530.75;6354779;22;20005;-93
2023/10/29 03:36:04;;;;;;;2.07;1.07;;;;;;;14.11;80.61;97536.59;6350210;22;20002;-94
2023/10/29 03:38:29;;;;;;;3.00;0.88;;;;;;;14.08;80.79;97529.03;6340231;22;20222;-94
2023/10/29 03:40:55;;;;;;;2.00;0.90;;;;;;;14.19;80.27;97545.03;6334291;22;19998;-93
2023/10/29 03:43:20;;;;;;;3.72;0.82;;;;;;;14.16;80.37;97529.25;6306671;22;20110;-93
2023/10/29 03:45:45;;;;;;;3.40;0.80;;;;;;;13.97;80.73;97533.38;6333849;22;20038;-94
2023/10/29 03:48:14;;;;;;;2.35;0.80;;;;;;;14.20;80.11;97536.44;6334673;22;20002;-94
2023/10/29 03:50:39;;;;;;;10.30;1.13;;;;;;;14.14;80.13;97521.38;6333971;22;20601;-93
2023/10/29 03:53:04;;;;;;;5.80;0.85;;;;;;;14.16;80.07;97496.38;6333616;22;20025;-96
2023/10/29 03:55:30;;;;;;;1.90;0.77;;;;;;;14.20;80.08;97519.19;6333925;22;20014;-93
2023/10/29 03:57:55;;;;;;;5.07;0.80;;;;;;;14.22;79.93;97508.69;6332251;22;20006;-93
2023/10/29 04:00:22;;;;;;;1.80;0.52;;;;;;;14.23;79.87;97499.34;6332235;22;20389;-93
2023/10/29 04:02:48;;;;;;;1.60;0.50;;;;;;;14.26;80.19;97501.38;6332282;22;20037;-93
2023/10/29 04:05:14;;;;;;;1.60;0.50;;;;;;;14.28;79.74;97506.53;6332266;22;20002;-95
2023/10/29 04:07:40;;;;;;;3.20;0.57;;;;;;;14.26;79.62;97509.59;6332069;22;20142;-94
2023/10/29 04:10:06;;;;;;;1.42;0.60;;;;;;;14.28;79.44;97531.97;6305063;22;20060;-96
2023/10/29 04:12:32;;;;;;;3.53;1.00;;;;;;;14.22;79.44;97530.63;6304732;22;20071;-95
2023/10/29 04:14:58;;;;;;;2.88;0.65;;;;;;;14.38;79.49;97532.69;6332049;22;20432;-96
2023/10/29 04:17:24;;;;;;;1.23;0.35;;;;;;;14.33;79.40;97522.75;6332707;22;20007;-96
2023/10/29 04:19:49;;;;;;;1.30;0.70;;;;;;;14.36;78.91;97528.31;6333365;22;20286;-95
2023/10/29 04:22:15;;;;;;;1.58;0.50;;;;;;;14.37;79.31;97512.69;6332936;22;20014;-95
2023/10/29 04:24:40;;;;;;;2.50;0.75;;;;;;;14.46;78.59;97512.56;6332804;22;20011;-96
2023/10/29 04:27:06;;;;;;;1.70;0.55;;;;;;;14.48;78.42;97513.78;6332531;22;20010;-96
2023/10/29 04:29:31;;;;;;;3.67;0.95;;;;;;;14.41;78.30;97512.78;6332849;22;20032;-95
2023/10/29 04:31:56;;;;;;;4.30;1.95;;;;;;;14.04;79.07;97521.84;6332855;22;20017;-94
2023/10/29 04:34:22;;;;;;;1.98;0.40;;;;;;;14.39;78.52;97526.84;6304844;22;20679;-95
2023/10/29 04:36:52;;;;;;;2.45;0.82;;;;;;;14.34;78.80;97525.13;6332143;22;20039;-94
2023/10/29 04:39:19;;;;;;;3.65;0.95;;;;;;;14.39;78.59;97543.28;6331528;22;20098;-94
2023/10/29 04:41:45;;;;;;;2.33;1.00;;;;;;;14.39;78.40;97531.53;6332942;22;20011;-95
2023/10/29 04:44:11;;;;;;;1.48;0.40;;;;;;;14.28;78.66;97542.16;6332374;22;20109;-94
2023/10/29 04:46:36;;;;;;;6.90;0.80;;;;;;;14.34;78.17;97552.53;6304739;22;20443;-94
2023/10/29 04:49:02;;;;;;;1.13;0.75;;;;;;;14.28;78.80;97553.91;6331958;22;20033;-96
2023/10/29 04:51:29;;;;;;;3.72;1.38;;;;;;;14.27;78.45;97548.78;6331663;22;20075;-94
2023/10/29 04:53:54;;;;;;;1.65;0.55;;;;;;;14.54;77.95;97549.97;6331793;22;20006;-95
2023/10/29 04:56:20;;;;;;;14.02;3.50;;;;;;;14.55;77.43;97548.84;6331337;22;20469;-93
2023/10/29 04:58:45;;;;;;;4.20;0.60;;;;;;;14.52;77.66;97541.31;6332212;22;20033;-94
2023/10/29 05:01:11;;;;;;;4.35;0.80;;;;;;;14.58;77.76;97547.38;6332101;22;20113;-95
2023/10/29 05:03:36;;;;;;;4.82;0.77;;;;;;;14.62;77.16;97552.97;6331828;22;20297;-94
2023/10/29 05:06:01;;;;;;;1.63;0.50;;;;;;;14.63;77.47;97569.06;6339035;22;19998;-96
2023/10/29 05:08:27;;;;;;;6.50;0.60;;;;;;;14.47;77.67;97571.72;6348725;22;20424;-96
2023/10/29 05:10:52;;;;;;;1.08;0.50;;;;;;;14.57;77.24;97565.75;6350461;22;20010;-96
2023/10/29 05:13:18;;;;;;;2.15;0.60;;;;;;;14.62;77.07;97572.16;6352378;22;20059;-96
2023/10/29 05:15:44;;;;;;;2.67;0.60;;;;;;;14.64;77.35;97558.91;6349915;22;20017;-96
2023/10/29 05:18:09;;;;;;;4.22;0.77;;;;;;;14.61;77.47;97565.06;6347203;22;20006;-96
2023/10/29 05:20:37;;;;;;;10.18;1.77;;;;;;;14.38;77.42;97562.81;6347699;22;20033;-96
2023/10/29 05:23:05;;;;;;;4.03;0.90;;;;;;;14.55;77.83;97568.06;6318865;22;20307;-96
2023/10/29 05:25:30;;;;;;;3.97;0.93;;;;;;;14.52;77.48;97579.69;6346580;22;20013;-96
2023/10/29 05:27:59;;;;;;;14.13;1.02;;;;;;;14.63;77.29;97568.25;6348752;22;20244;-96
2023/10/29 05:30:25;;;;;;;1.27;0.63;;;;;;;14.50;77.72;97572.97;6346791;22;20025;-96
2023/10/29 05:32:50;;;;;;;1.42;0.50;;;;;;;14.68;77.12;97584.47;6320599;22;20014;-96
2023/10/29 05:35:16;;;;;;;1.42;0.55;;;;;;;14.66;76.99;97589.50;6318195;22;20011;-96
2023/10/29 05:37:44;;;;;;;3.20;0.50;;;;;;;14.68;77.08;97595.44;6346322;22;20013;-96
2023/10/29 05:40:12;;;;;;;2.78;0.80;;;;;;;14.54;76.85;97585.63;6349615;22;20006;-96
2023/10/29 05:42:38;;;;;;;2.13;0.90;;;;;;;14.34;76.96;97585.44;6346282;22;20090;-96
2023/10/29 05:45:06;;;;;;;2.33;0.50;;;;;;;14.68;76.66;97595.44;6333797;22;20007;-96
2023/10/29 05:47:32;;;;;;;2.17;0.90;;;;;;;14.75;76.32;97581.13;6334816;22;20006;-96
2023/10/29 05:49:57;;;;;;;3.17;0.88;;;;;;;14.82;76.15;97598.63;6333993;22;20058;-95
2023/10/29 05:52:23;;;;;;;1.98;1.00;;;;;;;14.79;75.86;97602.06;6307702;22;20011;-95
2023/10/29 05:54:49;;;;;;;2.80;1.00;;;;;;;14.84;76.00;97592.00;6335377;22;20007;-95
2023/10/29 05:57:16;;;;;;;5.43;1.15;;;;;;;14.91;75.87;97597.69;6308761;22;20056;-95
2023/10/29 05:59:41;;;;;;;2.17;0.90;;;;;;;14.89;75.66;97602.75;6334877;22;20045;-96
2023/10/29 06:02:08;;;;;;;4.53;0.70;;;;;;;14.86;75.89;97597.94;6333895;22;20179;-96
2023/10/29 06:04:33;;;;;;;2.60;0.68;;;;;;;14.52;75.95;97609.84;6338699;22;20011;-96
2023/10/29 06:06:59;;;;;;;1.73;0.95;;;;;;;14.70;75.48;97604.94;6340049;22;20045;-96
2023/10/29 06:09:24;;;;;;;1.17;0.52;;;;;;;14.82;75.80;97601.38;6337306;22;20003;-96
2023/10/29 06:11:49;;;;;;;3.17;1.33;;;;;;;14.59;75.54;97618.31;6335127;22;20014;-96
2023/10/29 06:14:15;;;;;;;4.45;0.70;;;;;;;14.78;75.38;97599.66;6334551;22;20038;-96
2023/10/29 06:16:40;;;;;;;5.20;0.52;;;;;;;14.75;75.64;97608.56;6335301;22;20007;-96
2023/10/29 06:19:06;;;;;;;1.95;0.50;;;;;;;14.73;75.07;97616.34;6333094;22;20059;-95
2023/10/29 06:21:31;;;;;;;2.55;0.60;;;;;;;14.82;75.42;97612.34;6332973;22;20068;-96
2023/10/29 06:23:57;;;;;;;1.70;0.60;;;;;;;14.95;74.81;97631.53;6332280;22;20014;-96
2023/10/29 06:26:23;;;;;;;3.95;0.75;;;;;;;14.95;74.68;97617.81;6332212;22;20030;-95
2023/10/29 06:28:48;;;;;;;2.17;0.70;;;;;;;14.97;74.26;97612.00;6332390;22;20007;-96
2023/10/29 06:31:15;;;;;;;2.45;0.50;;;;;;;14.78;74.78;97627.88;6332799;22;20369;-96
2023/10/29 06:33:41;;;;;;;1.88;0.50;;;;;;;14.88;74.59;97623.91;6332490;22;20006;-96
2023/10/29 06:36:07;;;;;;;6.40;0.73;;;;;;;14.77;74.41;97634.50;6333078;22;20381;-95
2023/10/29 06:38:33;;;;;;;2.15;0.70;;;;;;;15.01;74.01;97646.59;6305120;22;20003;-95
2023/10/29 06:40:58;;;;;;;2.10;0.50;;;;;;;14.76;74.00;97649.38;6332848;22;20248;-95
2023/10/29 06:43:23;;;;;;;12.02;0.75;;;;;;;14.94;73.74;97646.41;6331563;22;20308;-95
2023/10/29 06:45:49;;;;;;;5.40;1.17;;;;;;;14.81;73.90;97640.91;6304976;22;20007;-96
2023/10/29 06:48:14;;;;;;;2.65;0.85;;;;;;;14.80;73.54;97652.22;6332097;22;20021;-95
2023/10/29 06:50:44;;;;;;;1.85;0.50;;;;;;;14.94;73.39;97655.44;6333766;22;20017;-95
2023/10/29 06:53:10;;;;;;;2.72;0.85;;;;;;;14.85;73.64;97668.47;6333042;22;20006;-96
2023/10/29 06:55:36;;;;;;;2.50;0.50;;;;;;;14.88;73.13;97664.25;6307914;22;20212;-95
2023/10/29 06:58:02;;;;;;;3.92;1.05;;;;;;;14.92;73.11;97667.91;6335859;22;20671;-96
2023/10/29 07:00:29;;;;;;;2.53;0.88;;;;;;;14.86;73.29;97677.50;6334549;22;20030;-95
2023/10/29 07:02:54;;;;;;;2.55;0.65;;;;;;;14.92;72.86;97665.16;6333783;22;20201;-95
2023/10/29 07:05:20;;;;;;;2.25;0.60;;;;;;;14.93;72.68;97670.28;6305987;22;20092;-95
2023/10/29 07:07:47;;;;;;;3.10;0.93;;;;;;;14.93;72.26;97681.25;6334011;22;20006;-95
2023/10/29 07:10:12;;;;;;;3.88;0.77;;;;;;;14.92;72.36;97673.38;6333350;22;20002;-95
2023/10/29 07:12:38;;;;;;;3.42;0.65;;;;;;;15.00;72.55;97686.16;6333901;22;20601;-96
2023/10/29 07:15:04;;;;;;;0.93;0.50;;;;;;;14.86;72.65;97691.22;6333831;22;20344;-95
2023/10/29 07:17:29;;;;;;;3.33;0.77;;;;;;;14.88;72.01;97694.41;6306472;22;20002;-95
2023/10/29 07:19:54;;;;;;;2.65;0.70;;;;;;;14.89;72.19;97709.75;6334228;22;20017;-95
2023/10/29 07:22:20;;;;;;;2.55;0.70;;;;;;;15.01;72.11;97703.44;6332964;22;20014;-95
2023/10/29 07:24:45;;;;;;;2.13;0.63;;;;;;;15.19;71.79;97703.97;6333131;22;20219;-95
2023/10/29 07:27:10;;;;;;;4.30;0.60;;;;;;;14.93;72.03;97705.13;6332670;22;20129;-91
2023/10/29 07:29:36;;;;;;;4.55;0.60;;;;;;;15.16;71.33;97712.91;6332373;22;19999;-92
2023/10/29 07:32:01;;;;;;;1.88;0.70;;;;;;;14.98;71.83;97735.09;6304937;22;19999;-93
2023/10/29 07:34:27;;;;;;;3.42;0.95;;;;;;;15.03;71.83;97726.63;6332503;22;20014;-93
2023/10/29 07:36:52;;;;;;;1.48;0.47;;;;;;;15.07;71.60;97734.19;6332559;22;20443;-93
2023/10/29 07:39:17;;;;;;;2.47;0.93;;;;;;;15.04;71.33;97727.44;6332250;22;20002;-92
2023/10/29 07:41:43;;;;;;;8.60;1.52;;;;;;;15.03;71.65;97739.56;6332340;22;20002;-92
2023/10/29 07:44:08;;;;;;;2.05;0.60;;;;;;;15.03;71.50;97728.59;6331814;22;20010;-93
2023/10/29 07:46:33;;;;;;;1.25;0.60;;;;;;;15.02;71.39;97744.25;6332949;22;20013;-91
2023/10/29 07:48:58;;;;;;;5.05;0.57;;;;;;;15.18;71.13;97740.78;6304897;22;20053;-93
2023/10/29 07:51:24;;;;;;;2.80;1.25;;;;;;;15.15;71.21;97736.00;6332773;22;20018;-92
2023/10/29 07:53:50;;;;;;;2.10;0.50;;;;;;;15.05;70.90;97727.09;6332600;22;20015;-94
2023/10/29 07:56:15;;;;;;;1.92;0.50;;;;;;;15.11;71.18;97732.34;6332249;22;20002;-94
2023/10/29 07:58:41;;;;;;;3.05;1.00;;;;;;;15.20;70.72;97740.44;6333014;22;20006;-94
2023/10/29 08:01:10;;;;;;;1.80;0.40;;;;;;;15.13;70.74;97739.06;6304858;22;20007;-93
2023/10/29 08:03:36;;;;;;;2.15;0.73;;;;;;;15.21;70.80;97742.88;6332341;22;20440;-93
2023/10/29 08:06:03;;;;;;;5.35;0.88;;;;;;;15.02;71.10;97741.50;6305196;22;20002;-94
2023/10/29 08:08:28;;;;;;;2.15;1.30;;;;;;;14.98;71.32;97759.78;6332022;22;20003;-93
2023/10/29 08:10:54;;;;;;;7.00;1.17;;;;;;;15.13;70.93;97776.72;6303799;22;20017;-93
2023/10/29 08:13:19;;;;;;;5.28;1.55;;;;;;;15.21;71.10;97802.44;6331807;22;20010;-94
2023/10/29 08:15:44;;;;;;;3.15;0.60;;;;;;;15.10;71.27;97793.84;6332233;22;19999;-93
2023/10/29 08:18:10;;;;;;;4.20;1.25;;;;;;;15.10;71.11;97810.31;6333826;22;20007;-95
2023/10/29 08:20:35;;;;;;;7.40;1.23;;;;;;;15.11;70.94;97807.22;6332593;22;20017;-95
2023/10/29 08:23:01;;;;;;;3.65;0.57;;;;;;;15.09;70.72;97806.78;6332747;22;20052;-93
2023/10/29 08:25:26;;;;;;;1.65;0.40;;;;;;;15.11;71.36;97800.97;6331961;22;20009;-92
2023/10/29 08:27:51;;;;;;;5.57;0.90;;;;;;;15.09;70.52;97800.50;6331988;22;20019;-93
2023/10/29 08:30:17;;;;;;;3.97;0.77;;;;;;;15.11;70.58;97793.50;6334928;22;20033;-94
2023/10/29 08:32:43;;;;;;;1.77;0.52;;;;;;;15.24;70.79;97799.00;6335877;22;20029;-92
2023/10/29 08:35:09;;;;;;;5.45;0.80;;;;;;;15.28;70.75;97789.72;6338482;22;20007;-93
2023/10/29 08:37:34;;;;;;;1.58;0.52;;;;;;;15.42;70.20;97788.56;6336927;22;19994;-94
2023/10/29 08:40:00;;;;;;;4.90;1.23;;;;;;;15.35;70.55;97785.59;6332719;22;20021;-93
2023/10/29 08:42:32;;;;;;;6.88;0.95;;;;;;;15.32;70.40;97789.03;6331929;22;20003;-95
2023/10/29 08:44:57;;;;;;;2.17;0.90;;;;;;;15.26;70.97;97781.03;6331502;22;20452;-94
2023/10/29 08:47:23;;;;;;;5.00;0.80;;;;;;;15.33;70.83;97815.34;6305089;22;20010;-94
2023/10/29 08:49:49;;;;;;;8.05;1.52;;;;;;;15.34;70.26;97812.25;6333284;22;20452;-94
2023/10/29 08:52:14;;;;;;;3.78;0.95;;;;;;;15.49;70.29;97820.94;6305151;22;20071;-93
2023/10/29 08:54:40;;;;;;;3.40;0.60;;;;;;;15.38;70.37;97815.09;6332855;22;20494;-94
2023/10/29 08:57:05;;;;;;;4.60;0.63;;;;;;;15.37;69.89;97819.81;6332707;22;20083;-94
2023/10/29 08:59:31;;;;;;;4.38;0.77;;;;;;;15.54;69.77;97806.97;6332062;22;20086;-93
2023/10/29 09:01:57;;;;;;;7.57;0.60;;;;;;;15.60;70.16;97815.78;6331622;22;20014;-94
2023/10/29 09:04:22;;;;;;;3.72;1.23;;;;;;;15.62;69.48;97821.72;6332258;22;20009;-94
2023/10/29 09:06:48;;;;;;;2.50;0.50;;;;;;;15.60;69.37;97832.25;6305067;22;20402;-94
2023/10/29 09:09:14;;;;;;;2.45;0.40;;;;;;;15.45;69.97;97820.03;6332484;22;20086;-94
2023/10/29 09:11:39;;;;;;;1.35;0.52;;;;;;;15.59;69.45;97819.66;6332655;22;19999;-94
2023/10/29 09:14:07;;;;;;;2.67;0.43;;;;;;;15.66;68.98;97819.88;6332170;22;20074;-94
2023/10/29 09:16:33;;;;;;;2.13;0.47;;;;;;;15.68;69.06;97833.28;6332351;22;20007;-94
2023/10/29 09:18:59;;;;;;;4.57;0.50;;;;;;;15.62;69.24;97847.22;6330732;22;20029;-94
2023/10/29 09:21:24;;;;;;;3.45;0.70;;;;;;;15.65;69.39;97848.50;6331202;22;20007;-94
2023/10/29 09:23:50;;;;;;;2.08;0.73;;;;;;;15.63;68.99;97842.53;6330523;22;20003;-94
2023/10/29 09:26:16;;;;;;;4.13;0.85;;;;;;;15.74;68.99;97854.66;6331561;22;20006;-94
2023/10/29 09:28:42;;;;;;;5.32;0.45;;;;;;;15.60;69.07;97871.50;6331804;22;20017;-93
2023/10/29 09:31:08;;;;;;;3.53;0.73;;;;;;;15.61;69.30;97883.28;6304090;22;20006;-94
2023/10/29 09:33:33;;;;;;;2.97;0.70;;;;;;;15.70;69.00;97870.22;6326426;22;20010;-93
2023/10/29 09:36:00;;;;;;;4.80;1.02;;;;;;;15.76;69.24;97879.81;6325412;22;20067;-93
2023/10/29 09:38:25;;;;;;;4.28;0.77;;;;;;;15.53;69.44;97879.50;6302960;22;20010;-94
2023/10/29 09:40:51;;;;;;;3.10;0.60;;;;;;;15.68;69.10;97878.00;6304725;22;20038;-94
2023/10/29 09:43:19;;;;;;;2.92;0.60;;;;;;;15.76;68.91;97879.03;6304870;22;20430;-94
2023/10/29 09:45:46;;;;;;;1.98;0.50;;;;;;;15.95;68.35;97881.16;6333482;22;20094;-93
2023/10/29 09:48:14;;;;;;;5.15;1.60;;;;;;;15.71;68.51;97871.81;6332142;22;20436;-94
2023/10/29 09:50:42;;;;;;;18.48;10.38;;;;;;;15.80;68.84;97870.91;6332167;22;20007;-93
2023/10/29 09:53:09;;;;;;;21.45;12.73;;;;;;;15.96;68.39;97874.53;6332448;22;20003;-96
2023/10/29 09:55:35;;;;;;;4.65;2.90;;;;;;;15.58;68.98;97867.50;6332612;22;20345;-95
2023/10/29 09:58:00;;;;;;;25.08;12.75;;;;;;;15.79;68.67;97855.56;6331992;22;20011;-95
2023/10/29 10:00:25;;;;;;;5.00;2.10;;;;;;;15.85;68.41;97856.91;6331625;22;20013;-95
2023/10/29 10:02:56;;;;;;;7.13;2.17;;;;;;;15.94;68.50;97851.28;6332320;22;20010;-95
2023/10/29 10:05:24;;;;;;;4.30;1.58;;;;;;;16.05;67.90;97848.91;6332887;22;20006;-94
2023/10/29 10:07:52;;;;;;;4.53;1.63;;;;;;;16.02;67.44;97844.09;6331743;22;20007;-95
2023/10/29 10:10:19;;;;;;;5.00;0.80;;;;;;;16.04;67.68;97852.78;6332062;22;20026;-94
2023/10/29 10:12:46;;;;;;;4.18;0.70;;;;;;;15.96;67.61;97841.56;6330655;22;20011;-94
2023/10/29 10:15:13;;;;;;;7.28;1.92;;;;;;;16.25;67.28;97849.81;6331083;22;20006;-94
2023/10/29 10:17:39;;;;;;;1.70;0.60;;;;;;;16.30;67.49;97854.28;6330727;22;20007;-94
2023/10/29 10:20:11;;;;;;;3.63;1.30;;;;;;;16.34;66.60;97856.00;6303873;22;20010;-94
2023/10/29 10:22:36;;;;;;;3.22;0.90;;;;;;;16.54;65.93;97855.31;6331875;22;20018;-93
2023/10/29 10:25:01;;;;;;;2.53;0.73;;;;;;;16.52;66.21;97863.91;6332017;22;20316;-94
2023/10/29 10:27:27;;;;;;;1.75;0.70;;;;;;;16.66;65.82;97860.75;6331945;22;20054;-95
2023/10/29 10:29:53;;;;;;;2.20;1.00;;;;;;;16.69;65.98;97868.31;6330882;22;20006;-94
2023/10/29 10:32:26;;;;;;;3.53;2.25;;;;;;;16.37;65.15;97867.44;6331481;22;20494;-94
2023/10/29 10:34:51;;;;;;;3.50;0.63;;;;;;;16.43;65.02;97855.03;6332473;22;20014;-95
2023/10/29 10:37:17;;;;;;;2.13;0.65;;;;;;;16.35;64.98;97865.03;6332656;22;20090;-94
2023/10/29 10:39:42;;;;;;;3.65;0.82;;;;;;;16.39;64.94;97859.63;6332666;22;20007;-94
2023/10/29 10:42:07;;;;;;;3.22;2.95;;;;;;;16.33;64.79;97861.84;6305865;22;20137;-94
2023/10/29 10:44:35;;;;;;;3.60;0.75;;;;;;;16.41;64.96;97851.84;6333640;22;20003;-95
2023/10/29 10:47:03;;;;;;;3.10;1.15;;;;;;;16.47;64.53;97844.94;6305726;22;20011;-95
2023/10/29 10:49:31;;;;;;;2.72;0.60;;;;;;;16.65;64.95;97848.16;6333728;22;20011;-96
2023/10/29 10:51:59;;;;;;;4.93;2.25;;;;;;;16.34;63.40;97844.19;6333245;22;20328;-94
2023/10/29 10:54:25;;;;;;;5.05;2.63;;;;;;;16.49;63.12;97831.63;6332645;22;20095;-95
2023/10/29 10:56:52;;;;;;;19.05;3.80;;;;;;;16.64;62.84;97838.31;6341326;22;20649;-95
2023/10/29 10:59:19;;;;;;;5.57;2.00;;;;;;;16.54;62.93;97833.31;6339048;22;20007;-96
2023/10/29 11:01:45;;;;;;;3.58;1.00;;;;;;;16.89;62.61;97838.16;6337415;22;20006;-96
2023/10/29 11:04:11;;;;;;;0.82;0.45;;;;;;;16.83;62.54;97850.56;6307407;22;20013;-96
2023/10/29 11:06:38;;;;;;;6.18;1.30;;;;;;;16.67;62.10;97856.88;6333641;22;20006;-96
2023/10/29 11:09:12;;;;;;;2.92;1.02;;;;;;;16.76;62.72;97858.66;6333401;22;20006;-96
2023/10/29 11:11:40;;;;;;;;;;;;;;;16.48;62.27;97851.22;6334459;22;20346;-96
2023/10/29 11:14:14;;;;;;;4.10;1.67;;;;;;;16.71;62.12;97842.41;6333218;22;19913;-95
2023/10/29 11:16:53;;;;;;;1.60;0.63;;;;;;;16.67;62.43;97847.81;6333560;22;20451;-96
2023/10/29 11:19:43;;;;;;;4.28;0.50;;;;;;;16.55;62.73;97849.47;6333472;22;20007;-96
2023/10/29 11:22:13;;;;;;;5.10;0.93;;;;;;;16.66;62.03;97863.50;6333205;22;20007;-95
2023/10/29 11:24:39;;;;;;;5.82;0.73;;;;;;;16.48;63.10;97835.53;6305880;22;20002;-95
2023/10/29 11:27:40;;;;;;;6.82;1.17;;;;;;;16.47;62.62;97849.63;6332792;22;20049;-95
2023/10/29 11:30:16;;;;;;;5.20;1.48;;;;;;;16.60;62.77;97845.66;6306660;22;20003;-96